Decoded Metar for YMTG ( in ) (IATA:) | Meteo·Mobile Aviation Weather
aviador You're here:

YMTG Decoded Metar

in
Report Time2018-09-24 08:00:00
UTC Time2018-09-24 08:17:31
Flight Rules vfr VFR
Wind140° at 10 kt
W.Decomp.*RWY 11: 8.7 kt HW 5.0 kt RCW
RWY 18: 7.7 kt HW 6.4 kt LCW
RWY 06: 1.7 kt HW 9.8 kt RCW
W.Rank140° ranks 28
Current wind is above 140° avg. (6.9)
Visibility9999 m
Phenomena:N/A
Clouds:Overcast 036 Hf
Expected CloudBase > 2,000 ft AGL from Temp-Dew spread
Ceiling3,600 ft
Temp10°C
Dew Point05°C (71% RH)
AAT5.3°C
QNH1031 hPa
Raw Report
METAR YMTG 240800Z AUTO 14010KT 9999 // OVC036 10/05 Q1031=

Extra information for YMTG:More info

Social comments